Time;durP1;ratioP1;P1;durP2;ratioP2;P2;SDS_P1;SDS_P2;PMS_P1;PMS_P2;Temp;Humidity;BMP_temperature;BMP_pressure;BME280_temperature;BME280_humidity;BME280_pressure;Samples;Min_cycle;Max_cycle;Signal;HPM_P1;HPM_P2
2020/12/28 00:00:33;;;;;;;7.95;4.60;;;;;;;2.58;64.81;97994.53;4966227;28;20057;-49
2020/12/28 00:03:00;;;;;;;5.70;4.40;;;;;;;2.60;65.10;97992.91;4965727;28;20058;-52
2020/12/28 00:05:26;;;;;;;7.50;4.93;;;;;;;2.58;65.36;98007.19;4964962;28;20556;-51
2020/12/28 00:07:53;;;;;;;8.50;5.13;;;;;;;2.39;66.23;98006.06;4965168;28;20101;-47
2020/12/28 00:10:21;;;;;;;7.22;4.43;;;;;;;2.33;66.42;97995.88;4964917;28;20051;-48
2020/12/28 00:12:47;;;;;;;8.40;4.80;;;;;;;1.83;68.80;97991.75;4964933;28;20050;-49
2020/12/28 00:15:29;;;;;;;6.57;4.57;;;;;;;1.87;68.70;97970.78;4969228;28;20047;-48
2020/12/28 00:17:57;;;;;;;7.72;4.72;;;;;;;2.11;67.94;97972.84;4966837;28;20065;-49
2020/12/28 00:20:26;;;;;;;8.13;4.50;;;;;;;1.99;68.59;97978.56;4966256;28;20050;-50
2020/12/28 00:22:52;;;;;;;6.50;4.10;;;;;;;2.30;67.90;97984.91;4970591;28;20047;-48
2020/12/28 00:25:26;;;;;;;8.75;5.50;;;;;;;1.92;69.11;97978.44;4970174;28;20046;-50
2020/12/28 00:27:53;;;;;;;7.25;4.35;;;;;;;2.27;68.58;97973.94;4970424;28;20081;-48
2020/12/28 00:30:20;;;;;;;9.52;4.53;;;;;;;2.02;69.30;97972.69;4970145;28;20057;-49
2020/12/28 00:32:47;;;;;;;9.50;4.63;;;;;;;2.28;69.22;97968.06;4970260;28;20102;-47
2020/12/28 00:35:14;;;;;;;7.63;4.60;;;;;;;1.94;70.13;97977.63;4970610;28;20100;-53
2020/12/28 00:37:40;;;;;;;8.65;4.60;;;;;;;1.80;71.22;97963.94;4970224;28;20050;-49
2020/12/28 00:40:09;;;;;;;8.02;4.97;;;;;;;2.21;70.17;97967.09;4970977;28;20055;-53
2020/12/28 00:42:36;;;;;;;7.95;5.00;;;;;;;2.16;70.12;97962.81;4970206;28;20053;-50
2020/12/28 00:45:08;;;;;;;8.65;4.82;;;;;;;1.72;72.02;97956.25;4970647;28;20070;-51
2020/12/28 00:47:36;;;;;;;8.10;4.90;;;;;;;2.03;71.09;97967.69;4969861;28;20047;-51
2020/12/28 00:50:04;;;;;;;10.05;4.97;;;;;;;2.12;70.88;97963.59;4971060;28;20464;-52
2020/12/28 00:52:31;;;;;;;6.97;4.38;;;;;;;2.23;70.67;97979.75;4970128;28;20054;-51
2020/12/28 00:54:57;;;;;;;6.70;5.15;;;;;;;1.68;73.10;97964.59;4970527;28;20050;-53
2020/12/28 00:57:23;;;;;;;7.30;4.63;;;;;;;1.59;73.04;97959.41;4969645;28;20836;-50
2020/12/28 00:59:50;;;;;;;7.43;5.10;;;;;;;1.69;73.36;97948.63;4969932;28;20050;-51
2020/12/28 01:02:16;;;;;;;7.68;4.68;;;;;;;2.24;71.36;97944.44;4969026;28;20054;-53
2020/12/28 01:04:43;;;;;;;6.68;4.97;;;;;;;2.03;71.69;97947.50;4969783;28;20235;-48
2020/12/28 01:07:09;;;;;;;7.80;4.95;;;;;;;1.77;73.39;97938.69;4969649;28;20504;-50
2020/12/28 01:09:35;;;;;;;6.65;4.68;;;;;;;1.99;72.58;97937.34;4970015;28;20068;-53
2020/12/28 01:12:02;;;;;;;7.40;4.82;;;;;;;1.66;73.86;97935.13;4970075;28;20103;-48
2020/12/28 01:14:28;;;;;;;6.97;4.93;;;;;;;2.02;73.71;97940.75;4969729;28;22780;-50
2020/12/28 01:16:55;;;;;;;9.23;5.18;;;;;;;1.73;74.62;97930.22;4966713;28;20046;-53
2020/12/28 01:19:21;;;;;;;8.50;4.88;;;;;;;1.60;75.43;97929.97;4969195;28;20105;-50
2020/12/28 01:21:47;;;;;;;8.52;5.55;;;;;;;1.78;74.55;97937.84;4969288;28;20105;-49
2020/12/28 01:24:14;;;;;;;8.30;5.13;;;;;;;1.61;75.82;97937.56;4969272;28;20128;-51
2020/12/28 01:26:42;;;;;;;8.10;4.90;;;;;;;1.52;76.23;97934.88;4969074;28;20101;-49
2020/12/28 01:29:10;;;;;;;7.43;5.25;;;;;;;1.61;76.32;97921.59;4969886;28;20062;-51
2020/12/28 01:31:37;;;;;;;9.00;5.47;;;;;;;1.78;75.92;97918.50;4969951;28;20121;-50
2020/12/28 01:34:03;;;;;;;8.90;5.25;;;;;;;1.45;76.96;97921.34;4969454;28;20067;-50
2020/12/28 01:36:29;;;;;;;7.97;5.60;;;;;;;1.55;76.64;97917.28;4969018;28;20057;-52
2020/12/28 01:38:56;;;;;;;7.53;4.75;;;;;;;1.99;75.45;97918.00;4969650;28;20050;-50
2020/12/28 01:41:23;;;;;;;9.45;5.90;;;;;;;2.21;74.17;97913.25;4964840;28;20568;-49
2020/12/28 01:43:49;;;;;;;9.55;6.18;;;;;;;1.59;76.92;97906.44;4968904;28;20051;-50
2020/12/28 01:46:17;;;;;;;8.38;5.40;;;;;;;1.77;76.10;97903.38;4969361;28;20062;-50
2020/12/28 01:48:43;;;;;;;7.85;5.28;;;;;;;1.76;76.58;97894.09;4968640;28;20057;-48
2020/12/28 01:51:10;;;;;;;9.27;4.97;;;;;;;1.82;76.26;97895.88;4969452;28;20402;-49
2020/12/28 01:53:37;;;;;;;6.95;5.10;;;;;;;1.91;76.20;97891.81;4969295;28;20055;-50
2020/12/28 01:56:06;;;;;;;7.35;5.43;;;;;;;1.91;76.20;97890.97;4969378;28;20104;-48
2020/12/28 01:58:33;;;;;;;8.27;4.95;;;;;;;1.69;77.35;97885.59;4968371;28;20050;-50
2020/12/28 02:01:00;;;;;;;7.22;4.80;;;;;;;1.45;78.63;97891.09;4968922;28;20061;-52
2020/12/28 02:03:27;;;;;;;7.90;5.25;;;;;;;1.92;76.71;97883.41;4968515;28;20047;-55
2020/12/28 02:05:55;;;;;;;9.55;4.97;;;;;;;2.00;76.10;97874.28;4968916;28;20536;-49
2020/12/28 02:08:21;;;;;;;8.13;5.07;;;;;;;2.17;75.90;97884.63;4968613;28;20055;-49
2020/12/28 02:10:54;;;;;;;8.25;5.50;;;;;;;1.71;77.36;97893.16;4968482;28;20057;-48
2020/12/28 02:13:21;;;;;;;6.80;4.93;;;;;;;2.00;76.95;97891.09;4968707;28;20054;-52
2020/12/28 02:15:47;;;;;;;8.27;4.88;;;;;;;2.22;76.04;97893.09;4968539;28;20458;-49
2020/12/28 02:18:16;;;;;;;8.60;4.80;;;;;;;1.87;77.29;97904.34;4968805;28;20046;-49
2020/12/28 02:20:42;;;;;;;7.72;5.05;;;;;;;2.10;76.83;97887.88;4968304;28;20058;-48
2020/12/28 02:23:09;;;;;;;7.18;5.10;;;;;;;2.00;77.21;97896.97;4968860;28;20177;-52
2020/12/28 02:25:35;;;;;;;6.72;4.95;;;;;;;2.21;76.21;97888.84;4968756;28;20054;-50
2020/12/28 02:28:02;;;;;;;7.25;5.15;;;;;;;1.98;77.05;97886.00;4968905;28;20521;-49
2020/12/28 02:30:29;;;;;;;7.25;5.03;;;;;;;1.84;78.52;97884.13;4968122;28;20403;-55
2020/12/28 02:32:55;;;;;;;8.30;5.30;;;;;;;1.89;77.92;97878.31;4966116;28;20369;-50
2020/12/28 02:35:22;;;;;;;7.78;5.43;;;;;;;2.08;77.16;97879.44;4962406;28;20414;-49
2020/12/28 02:37:48;;;;;;;7.18;4.80;;;;;;;1.90;78.09;97880.03;4967609;28;20047;-50
2020/12/28 02:40:15;;;;;;;7.10;4.97;;;;;;;1.65;78.94;97883.84;4968715;28;20052;-47
2020/12/28 02:42:42;;;;;;;8.80;5.93;;;;;;;1.43;80.12;97881.78;4967928;28;20057;-51
2020/12/28 02:45:09;;;;;;;8.27;5.88;;;;;;;1.53;80.02;97881.97;4968606;28;20047;-49
2020/12/28 02:47:35;;;;;;;8.27;5.35;;;;;;;1.51;79.85;97881.09;4967876;28;20043;-51
2020/12/28 02:50:02;;;;;;;9.00;5.82;;;;;;;1.30;81.16;97879.91;4968650;28;20056;-51
2020/12/28 02:52:29;;;;;;;7.28;5.15;;;;;;;1.10;81.82;97880.41;4968002;28;20046;-52
2020/12/28 02:54:55;;;;;;;8.13;5.72;;;;;;;1.10;82.39;97882.91;4965508;28;20042;-55
2020/12/28 02:57:22;;;;;;;7.65;5.10;;;;;;;1.10;82.28;97877.88;4963069;28;20061;-53
2020/12/28 02:59:48;;;;;;;9.68;5.90;;;;;;;1.02;82.74;97880.28;4967053;28;20053;-53
2020/12/28 03:02:15;;;;;;;9.43;5.68;;;;;;;0.88;83.59;97886.75;4968017;28;20046;-52
2020/12/28 03:04:42;;;;;;;7.60;5.55;;;;;;;1.07;83.32;97877.84;4967688;28;20127;-50
2020/12/28 03:07:08;;;;;;;8.07;5.35;;;;;;;1.03;83.31;97873.56;4968291;28;20055;-53
2020/12/28 03:09:35;;;;;;;9.38;5.63;;;;;;;1.15;82.86;97862.84;4967673;28;20440;-47
2020/12/28 03:12:01;;;;;;;7.65;4.72;;;;;;;0.89;84.03;97867.44;4967967;28;20372;-47
2020/12/28 03:14:28;;;;;;;9.07;5.75;;;;;;;1.16;83.03;97860.38;4967621;28;20051;-47
2020/12/28 03:16:54;;;;;;;8.60;5.53;;;;;;;0.96;83.92;97860.00;4967496;28;20461;-51
2020/12/28 03:19:21;;;;;;;7.35;4.80;;;;;;;0.92;84.35;97853.19;4967270;28;20053;-48
2020/12/28 03:21:47;;;;;;;7.43;4.93;;;;;;;1.11;84.16;97866.13;4967557;28;20540;-47
2020/12/28 03:24:15;;;;;;;6.72;5.05;;;;;;;1.25;83.67;97868.09;4967780;28;20050;-48
2020/12/28 03:26:42;;;;;;;7.72;5.28;;;;;;;1.52;82.65;97862.63;4966900;28;20620;-47
2020/12/28 03:29:13;;;;;;;6.25;4.57;;;;;;;1.49;82.11;97857.53;4967651;28;20168;-47
2020/12/28 03:31:43;;;;;;;6.78;4.63;;;;;;;1.88;80.88;97858.09;4966519;28;20084;-50
2020/12/28 03:34:09;;;;;;;6.38;4.70;;;;;;;1.43;81.51;97856.59;4967350;28;20058;-48
2020/12/28 03:36:36;;;;;;;7.00;4.93;;;;;;;1.25;83.52;97862.19;4967362;28;20046;-49
2020/12/28 03:39:04;;;;;;;6.38;5.07;;;;;;;1.60;81.95;97872.81;4967471;28;20062;-49
2020/12/28 03:41:34;;;;;;;8.73;5.32;;;;;;;1.27;83.55;97871.47;4967045;28;20053;-47
2020/12/28 03:44:00;;;;;;;8.15;5.25;;;;;;;1.41;82.68;97865.81;4967578;28;20421;-47
2020/12/28 03:46:27;;;;;;;7.22;4.80;;;;;;;1.19;84.07;97852.00;4966744;28;20051;-47
2020/12/28 03:48:54;;;;;;;8.35;5.90;;;;;;;1.17;84.48;97859.53;4967433;28;20134;-50
2020/12/28 03:51:20;;;;;;;8.40;5.70;;;;;;;1.45;83.79;97855.78;4966783;28;20413;-52
2020/12/28 03:53:47;;;;;;;7.15;4.95;;;;;;;1.70;82.92;97857.00;4966635;28;20051;-49
2020/12/28 03:56:14;;;;;;;6.40;4.95;;;;;;;1.42;83.14;97857.41;4967123;28;20058;-49
2020/12/28 03:58:41;;;;;;;8.27;5.50;;;;;;;1.27;84.41;97847.94;4966931;28;20058;-52
2020/12/28 04:01:07;;;;;;;8.68;4.65;;;;;;;1.74;83.06;97846.13;4967817;28;20047;-49
2020/12/28 04:03:34;;;;;;;7.70;5.18;;;;;;;2.27;80.42;97837.63;4967147;28;20054;-50
2020/12/28 04:06:01;;;;;;;6.35;4.68;;;;;;;2.02;80.40;97831.38;4967477;28;20074;-50
2020/12/28 04:08:28;;;;;;;7.45;5.57;;;;;;;1.76;81.15;97831.06;4966766;28;20053;-52
2020/12/28 04:10:55;;;;;;;8.90;4.57;;;;;;;1.71;82.27;97823.41;4967136;28;20046;-52
2020/12/28 04:13:21;;;;;;;7.68;4.85;;;;;;;1.85;81.45;97822.75;4966933;28;20046;-51
2020/12/28 04:15:48;;;;;;;8.80;5.22;;;;;;;1.63;82.69;97830.03;4966753;28;20047;-52
2020/12/28 04:18:16;;;;;;;8.27;5.20;;;;;;;1.82;82.58;97831.13;4967354;28;20050;-53
2020/12/28 04:20:42;;;;;;;7.75;5.18;;;;;;;1.59;83.62;97813.16;4966230;28;20626;-48
2020/12/28 04:23:09;;;;;;;6.13;5.20;;;;;;;1.52;83.52;97793.69;4968024;28;20065;-52
2020/12/28 04:25:36;;;;;;;9.63;6.00;;;;;;;1.35;84.34;97783.38;4967008;28;20050;-48
2020/12/28 04:28:02;;;;;;;5.78;4.65;;;;;;;2.05;81.92;97780.97;4967389;28;20053;-47
2020/12/28 04:30:29;;;;;;;7.53;5.57;;;;;;;1.76;82.85;97791.53;4967064;28;20054;-48
2020/12/28 04:32:56;;;;;;;6.88;4.85;;;;;;;1.82;82.21;97779.84;4964596;28;20051;-53
2020/12/28 04:35:22;;;;;;;7.53;5.45;;;;;;;1.61;83.27;97772.81;4962260;28;20054;-50
2020/12/28 04:37:49;;;;;;;7.65;5.40;;;;;;;1.64;83.31;97780.44;4966421;28;20049;-50
2020/12/28 04:40:16;;;;;;;7.60;5.30;;;;;;;2.07;81.96;97779.31;4965988;28;20051;-52
2020/12/28 04:42:43;;;;;;;7.75;6.00;;;;;;;1.69;82.95;97776.28;4966509;28;20133;-54
2020/12/28 04:45:10;;;;;;;6.50;5.20;;;;;;;1.68;82.93;97774.59;4967156;28;20047;-50
2020/12/28 04:47:37;;;;;;;6.47;5.32;;;;;;;1.75;83.47;97773.84;4966523;28;20050;-50
2020/12/28 04:50:06;;;;;;;8.65;5.53;;;;;;;2.16;81.51;97763.44;4967134;28;20050;-51
2020/12/28 04:52:34;;;;;;;7.35;5.00;;;;;;;1.70;83.07;97762.84;4949101;28;20497;-48
2020/12/28 04:55:01;;;;;;;7.45;5.07;;;;;;;1.79;83.85;97765.50;4966806;28;20043;-53
2020/12/28 04:57:28;;;;;;;6.22;4.90;;;;;;;1.95;82.27;97769.06;4966264;28;20054;-53
2020/12/28 04:59:56;;;;;;;7.45;4.97;;;;;;;2.00;82.15;97757.38;4968629;28;20042;-51
2020/12/28 05:02:24;;;;;;;6.75;5.40;;;;;;;1.88;82.80;97760.56;4965451;28;20088;-49
2020/12/28 05:04:51;;;;;;;6.63;4.88;;;;;;;2.05;82.65;97753.22;4969725;28;20133;-52
2020/12/28 05:07:17;;;;;;;6.47;5.20;;;;;;;1.84;82.97;97758.00;4969201;28;20054;-49
2020/12/28 05:09:44;;;;;;;8.43;5.35;;;;;;;1.89;83.05;97763.94;4969620;28;20054;-53
2020/12/28 05:12:11;;;;;;;6.60;5.13;;;;;;;1.76;83.89;97752.88;4970470;28;20046;-52
2020/12/28 05:14:37;;;;;;;6.70;5.47;;;;;;;1.79;83.18;97748.69;4970057;28;20051;-53
2020/12/28 05:17:07;;;;;;;7.35;5.68;;;;;;;2.15;81.55;97747.44;4969874;28;20046;-55
2020/12/28 05:19:34;;;;;;;8.20;5.22;;;;;;;2.09;82.14;97742.34;4969627;28;20413;-49
2020/12/28 05:22:01;;;;;;;7.90;5.55;;;;;;;1.81;83.03;97752.91;4970434;28;20062;-55
2020/12/28 05:24:28;;;;;;;7.57;5.68;;;;;;;2.17;82.04;97744.94;4969237;28;20061;-51
2020/12/28 05:26:55;;;;;;;7.28;5.90;;;;;;;1.66;84.27;97751.88;4969582;28;20121;-55
2020/12/28 05:29:24;;;;;;;6.72;5.20;;;;;;;1.72;84.14;97746.09;4965043;28;20046;-52
2020/12/28 05:31:52;;;;;;;6.50;5.47;;;;;;;2.33;81.43;97749.31;4968653;28;20137;-48
2020/12/28 05:34:28;;;;;;;7.90;5.78;;;;;;;2.19;82.23;97745.81;4968965;28;20055;-49
2020/12/28 05:36:57;;;;;;;6.75;5.32;;;;;;;1.84;83.81;97743.69;4969376;28;20054;-52
2020/12/28 05:39:26;;;;;;;6.68;5.35;;;;;;;1.90;83.63;97745.47;4965077;28;20053;-47
2020/12/28 05:45:52;;;;;;;7.78;5.68;;;;;;;1.70;83.91;97723.34;4970240;28;20061;-49
2020/12/28 05:48:22;;;;;;;7.75;5.53;;;;;;;2.00;83.52;97732.97;4968853;28;20042;-52
2020/12/28 05:50:57;;;;;;;6.70;5.13;;;;;;;2.14;82.60;97724.72;4969183;28;20053;-52
2020/12/28 05:53:26;;;;;;;8.13;5.72;;;;;;;2.19;82.40;97725.63;4965197;28;20124;-52
2020/12/28 05:55:54;;;;;;;6.35;5.43;;;;;;;1.91;84.28;97721.94;4969145;28;20046;-47
2020/12/28 05:58:21;;;;;;;8.07;6.15;;;;;;;1.66;84.85;97715.72;4969087;28;20046;-50
2020/12/28 06:00:51;;;;;;;8.98;5.70;;;;;;;1.75;84.53;97719.19;4968523;28;20102;-53
2020/12/28 06:03:24;;;;;;;6.72;6.03;;;;;;;1.38;86.15;97725.44;4968248;28;20109;-54
2020/12/28 06:05:54;;;;;;;8.95;6.35;;;;;;;1.43;86.06;97721.34;4968499;28;20101;-51
2020/12/28 06:08:21;;;;;;;7.88;5.82;;;;;;;1.43;85.90;97723.84;4968349;28;20046;-50
2020/12/28 06:10:48;;;;;;;7.13;6.10;;;;;;;1.44;86.60;97723.03;4967738;28;20047;-49
2020/12/28 06:13:25;;;;;;;7.30;6.35;;;;;;;1.45;86.43;97724.72;4969301;28;20058;-49
2020/12/28 06:16:03;;;;;;;7.97;6.15;;;;;;;1.74;85.66;97724.25;4968919;28;20138;-46
2020/12/28 06:18:31;;;;;;;7.82;6.13;;;;;;;1.45;86.46;97729.75;4964554;28;20043;-46
2020/12/28 06:20:57;;;;;;;9.60;6.35;;;;;;;1.34;86.93;97743.88;4968947;28;20297;-47
2020/12/28 06:23:38;;;;;;;8.00;5.93;;;;;;;1.91;84.98;97744.63;4968132;28;20445;-46
2020/12/28 06:26:05;;;;;;;7.10;6.35;;;;;;;1.68;85.79;97735.09;4968781;28;20058;-47
2020/12/28 06:28:31;;;;;;;8.90;6.32;;;;;;;1.45;86.35;97736.47;4968249;28;20587;-50
2020/12/28 06:31:07;;;;;;;9.15;6.57;;;;;;;1.55;86.18;97733.25;4968561;28;20125;-51
2020/12/28 06:33:34;;;;;;;9.27;6.65;;;;;;;1.79;85.44;97720.94;4967735;28;20505;-52
2020/12/28 06:36:00;;;;;;;8.52;6.20;;;;;;;1.75;85.00;97718.34;4968043;28;20050;-50
2020/12/28 06:38:27;;;;;;;7.72;5.90;;;;;;;1.64;85.53;97720.75;4967722;28;20532;-50
2020/12/28 06:40:53;;;;;;;8.55;6.68;;;;;;;1.61;86.29;97717.34;4968495;28;20425;-49
2020/12/28 06:43:22;;;;;;;8.57;6.47;;;;;;;1.90;84.96;97723.63;4967572;28;20042;-50
2020/12/28 06:45:49;;;;;;;9.20;6.60;;;;;;;1.60;85.96;97710.59;4967821;28;20560;-47
2020/12/28 06:48:20;;;;;;;7.93;5.78;;;;;;;1.28;86.78;97706.81;4966946;28;20544;-48
2020/12/28 06:50:48;;;;;;;7.93;6.32;;;;;;;1.23;87.53;97715.16;4967658;28;20475;-49
2020/12/28 06:53:26;;;;;;;10.63;7.72;;;;;;;0.99;89.27;97698.00;4968041;28;20066;-49
2020/12/28 06:56:04;;;;;;;9.75;7.82;;;;;;;1.19;88.54;97681.50;4967697;28;20057;-53
2020/12/28 06:58:30;;;;;;;11.82;8.20;;;;;;;1.08;88.59;97687.22;4964339;28;20129;-51
2020/12/28 07:00:57;;;;;;;8.55;6.85;;;;;;;1.21;88.90;97668.94;4968276;28;20117;-48
2020/12/28 07:03:24;;;;;;;8.55;7.10;;;;;;;1.20;88.28;97673.13;4967762;28;20070;-50
2020/12/28 07:06:17;;;;;;;11.18;8.48;;;;;;;1.05;89.31;97674.56;4967681;28;20046;-50
2020/12/28 07:08:44;;;;;;;9.98;7.80;;;;;;;1.18;88.68;97658.81;4965953;28;20054;-50
2020/12/28 07:11:16;;;;;;;9.40;7.45;;;;;;;1.19;88.57;97673.94;4967786;28;20066;-51
2020/12/28 07:13:42;;;;;;;11.07;7.60;;;;;;;1.77;86.28;97674.69;4966224;28;20171;-47
2020/12/28 07:16:09;;;;;;;10.35;6.65;;;;;;;1.82;86.21;97672.22;4967883;28;20050;-47
2020/12/28 07:18:36;;;;;;;9.02;7.10;;;;;;;1.74;85.35;97671.28;4967369;28;20177;-51
2020/12/28 07:21:04;;;;;;;10.48;6.97;;;;;;;1.40;88.08;97675.91;4967875;28;20498;-52
2020/12/28 07:23:31;;;;;;;10.98;7.18;;;;;;;1.63;86.33;97681.25;4967039;28;20055;-48
2020/12/28 07:26:11;;;;;;;9.70;7.10;;;;;;;1.37;87.23;97685.94;4967398;28;20051;-50
2020/12/28 07:28:40;;;;;;;10.27;6.95;;;;;;;1.27;88.01;97695.06;4967099;28;20102;-46
2020/12/28 07:31:07;;;;;;;10.20;7.43;;;;;;;1.90;86.12;97692.50;4967834;28;20110;-48
2020/12/28 07:33:43;;;;;;;8.32;6.82;;;;;;;1.50;87.06;97695.34;4967912;28;20051;-48
2020/12/28 07:36:14;;;;;;;8.55;6.13;;;;;;;1.48;87.63;97696.19;4968128;28;20055;-50
2020/12/28 07:38:46;;;;;;;10.55;7.70;;;;;;;1.10;89.09;97693.97;4967107;28;20093;-49
2020/12/28 07:41:15;;;;;;;8.45;6.57;;;;;;;1.23;88.89;97698.34;4965353;28;20138;-50
2020/12/28 07:43:54;;;;;;;8.40;6.40;;;;;;;1.27;88.50;97706.81;4964918;28;20061;-51
2020/12/28 07:46:33;;;;;;;8.98;7.10;;;;;;;1.22;88.90;97711.78;4966500;28;20523;-48
2020/12/28 07:49:18;;;;;;;10.75;7.32;;;;;;;1.21;88.95;97714.28;4964873;28;20047;-50
2020/12/28 07:52:07;;;;;;;8.57;6.63;;;;;;;1.62;87.85;97704.78;4967133;28;20505;-47
2020/12/28 07:54:59;;;;;;;9.02;7.30;;;;;;;1.27;88.95;97714.38;4964776;28;20054;-47
2020/12/28 07:57:43;;;;;;;7.82;6.30;;;;;;;1.74;87.07;97702.38;4962850;28;20051;-52
2020/12/28 08:00:16;;;;;;;10.88;7.50;;;;;;;1.64;87.74;97707.31;4966518;28;20057;-51
2020/12/28 08:03:00;;;;;;;9.13;7.15;;;;;;;1.64;87.40;97713.19;4966517;28;20051;-50
2020/12/28 08:05:27;;;;;;;7.68;6.28;;;;;;;1.73;87.15;97725.06;4962886;28;20055;-51
2020/12/28 08:07:54;;;;;;;9.43;6.35;;;;;;;2.22;85.51;97720.59;4966937;28;20386;-50
2020/12/28 08:10:20;;;;;;;8.85;6.30;;;;;;;1.94;86.49;97729.50;4966988;28;20101;-51
2020/12/28 08:13:00;;;;;;;7.80;5.88;;;;;;;1.90;86.21;97726.13;4966993;28;20747;-51
2020/12/28 08:15:35;;;;;;;8.88;7.00;;;;;;;1.98;86.08;97723.69;4945881;28;20054;-51
2020/12/28 08:18:04;;;;;;;6.63;5.75;;;;;;;2.64;83.46;97719.34;4963930;28;20054;-49
2020/12/28 08:20:31;;;;;;;8.10;6.15;;;;;;;2.33;83.96;97725.75;4966442;28;20051;-48
2020/12/28 08:22:57;;;;;;;9.25;6.47;;;;;;;2.51;83.23;97726.78;4963859;28;20516;-50
2020/12/28 08:25:30;;;;;;;8.38;6.55;;;;;;;2.66;83.77;97736.19;4965850;28;20109;-54
2020/12/28 08:27:57;;;;;;;8.25;6.00;;;;;;;2.57;83.47;97727.69;4963930;28;20050;-54
2020/12/28 08:30:28;;;;;;;8.40;5.85;;;;;;;3.00;81.15;97727.19;4964108;28;20102;-48
2020/12/28 08:32:59;;;;;;;8.52;6.22;;;;;;;3.11;81.03;97718.88;4964247;28;20458;-50
2020/12/28 08:35:26;;;;;;;10.07;6.82;;;;;;;2.72;81.52;97725.28;4965051;28;20051;-47
2020/12/28 08:37:53;;;;;;;8.32;5.80;;;;;;;3.05;80.62;97725.56;4969844;28;20047;-46
2020/12/28 08:40:23;;;;;;;9.18;6.15;;;;;;;2.69;83.16;97718.53;4970451;28;20046;-47
2020/12/28 08:42:58;;;;;;;8.25;6.05;;;;;;;2.68;81.95;97719.38;4969817;28;20050;-49
2020/12/28 08:45:27;;;;;;;10.10;6.32;;;;;;;3.18;80.43;97718.91;4965778;28;20417;-46
2020/12/28 08:47:56;;;;;;;7.72;5.22;;;;;;;2.94;80.83;97703.56;4968227;28;20059;-46
2020/12/28 08:50:25;;;;;;;9.95;6.55;;;;;;;3.06;80.36;97696.09;4969189;28;20109;-46
2020/12/28 08:52:54;;;;;;;7.95;5.50;;;;;;;3.00;79.74;97699.41;4969053;28;20054;-46
2020/12/28 08:55:22;;;;;;;7.10;5.78;;;;;;;3.11;79.84;97696.97;4955710;28;20058;-45
2020/12/28 08:57:56;;;;;;;8.98;6.10;;;;;;;3.40;78.29;97694.59;4966740;28;20077;-46
2020/12/28 09:00:24;;;;;;;8.48;5.95;;;;;;;3.06;79.72;97688.50;4967296;28;20058;-53
2020/12/28 09:03:01;;;;;;;9.40;6.10;;;;;;;3.20;79.03;97679.34;4968145;28;20075;-45
2020/12/28 09:05:29;;;;;;;5.95;5.28;;;;;;;3.13;79.52;97689.38;4965008;28;20054;-46
2020/12/28 09:07:55;;;;;;;7.07;5.68;;;;;;;3.27;78.23;97701.25;4963796;28;20129;-53
2020/12/28 09:10:22;;;;;;;9.35;6.20;;;;;;;2.99;80.08;97694.34;4960890;28;20046;-47
2020/12/28 09:12:48;;;;;;;7.72;5.63;;;;;;;3.49;77.52;97702.25;4966770;28;20519;-46
2020/12/28 09:15:15;;;;;;;6.45;5.15;;;;;;;3.42;77.44;97702.19;4961746;28;20074;-48
2020/12/28 09:17:42;;;;;;;7.22;4.75;;;;;;;3.45;77.38;97692.94;4964011;28;20568;-47
2020/12/28 09:20:08;;;;;;;7.07;4.50;;;;;;;3.53;77.07;97701.44;4966102;28;20051;-45
2020/12/28 09:22:35;;;;;;;6.63;4.68;;;;;;;3.63;76.07;97712.44;4968801;28;20500;-46
2020/12/28 09:25:02;;;;;;;6.78;4.70;;;;;;;3.68;76.08;97712.47;4966841;28;20087;-46
2020/12/28 09:27:29;;;;;;;6.18;5.20;;;;;;;3.76;75.61;97709.13;4964506;28;20120;-45
2020/12/28 09:32:42;;;;;;;6.82;4.85;;;;;;;3.70;75.95;97726.81;4891394;29;20039;-45
2020/12/28 09:35:08;;;;;;;6.47;4.82;;;;;;;3.92;75.14;97719.31;4890951;29;20499;-43
2020/12/28 09:37:36;;;;;;;6.63;4.10;;;;;;;3.71;75.71;97708.28;4891018;29;20052;-42
2020/12/28 09:40:05;;;;;;;7.72;4.72;;;;;;;3.69;75.39;97712.47;4893152;29;20056;-43
2020/12/28 09:42:32;;;;;;;6.15;5.00;;;;;;;3.66;76.35;97709.94;4903542;29;20577;-44
2020/12/28 09:44:58;;;;;;;8.95;4.95;;;;;;;3.96;75.36;97713.41;4906894;29;20052;-47
2020/12/28 09:47:24;;;;;;;6.85;5.60;;;;;;;3.80;74.79;97708.31;4905796;29;20459;-43
2020/12/28 09:49:52;;;;;;;6.32;5.07;;;;;;;3.51;77.29;97708.19;4907370;29;20048;-45
2020/12/28 09:52:19;;;;;;;6.85;4.90;;;;;;;3.76;76.02;97711.66;4905145;29;20087;-43
2020/12/28 09:54:45;;;;;;;7.13;4.53;;;;;;;3.89;75.98;97710.03;4906484;29;20080;-45
2020/12/28 09:57:13;;;;;;;5.80;4.53;;;;;;;3.95;74.65;97714.28;4905517;29;20402;-44
2020/12/28 09:59:40;;;;;;;6.75;4.72;;;;;;;3.64;76.15;97714.13;4907575;29;20048;-45
2020/12/28 10:02:07;;;;;;;6.85;4.88;;;;;;;3.94;74.64;97720.19;4905609;29;20056;-47
2020/12/28 10:04:34;;;;;;;6.07;4.68;;;;;;;3.94;74.55;97715.13;4906660;29;20051;-44
2020/12/28 10:07:01;;;;;;;6.28;4.43;;;;;;;4.38;73.54;97714.38;4904194;29;20060;-47
2020/12/28 10:09:27;;;;;;;6.40;4.45;;;;;;;4.52;72.18;97716.09;4906322;29;20144;-43
2020/12/28 10:11:54;;;;;;;5.35;4.22;;;;;;;4.05;74.83;97716.81;4906051;29;20442;-47
2020/12/28 10:14:21;;;;;;;5.90;4.20;;;;;;;3.95;73.77;97702.47;4904884;29;20304;-43
2020/12/28 10:16:48;;;;;;;5.40;4.18;;;;;;;4.30;73.11;97709.34;4906682;29;20054;-43
2020/12/28 10:19:16;;;;;;;5.32;4.60;;;;;;;4.48;72.50;97709.34;4903922;29;20104;-44
2020/12/28 10:21:42;;;;;;;5.53;4.20;;;;;;;4.72;71.20;97703.47;4906157;29;20048;-45
2020/12/28 10:24:08;;;;;;;6.30;4.47;;;;;;;4.25;72.36;97693.25;4904196;29;20506;-44
2020/12/28 10:26:36;;;;;;;5.60;4.20;;;;;;;4.41;72.11;97699.22;4906300;29;20506;-43
2020/12/28 10:29:02;;;;;;;7.03;4.45;;;;;;;4.59;72.68;97696.69;4905626;29;20060;-42
2020/12/28 10:31:29;;;;;;;5.88;4.40;;;;;;;4.79;71.11;97696.72;4904952;29;20044;-42
2020/12/28 10:33:56;;;;;;;5.72;4.40;;;;;;;5.11;69.65;97689.09;4907082;29;20067;-43
2020/12/28 10:36:24;;;;;;;6.53;4.10;;;;;;;4.81;70.39;97680.66;4903144;29;20049;-43
2020/12/28 10:38:54;;;;;;;3.95;3.35;;;;;;;5.11;69.90;97678.94;4905877;29;20506;-42
2020/12/28 10:41:29;;;;;;;6.80;4.38;;;;;;;5.20;69.43;97691.63;4903478;29;20104;-43
2020/12/28 10:43:57;;;;;;;6.18;4.55;;;;;;;5.04;70.40;97682.34;4901779;29;20490;-43
2020/12/28 10:46:24;;;;;;;6.10;4.50;;;;;;;4.87;70.20;97684.03;4899364;29;20056;-43
2020/12/28 10:48:53;;;;;;;5.03;4.40;;;;;;;5.20;68.48;97676.41;4904261;29;20446;-42
2020/12/28 10:51:19;;;;;;;6.97;4.72;;;;;;;5.33;68.25;97684.84;4903206;29;20121;-42
2020/12/28 10:53:45;;;;;;;7.03;4.45;;;;;;;4.82;70.76;97686.59;4905605;29;20044;-43
2020/12/28 10:56:12;;;;;;;5.05;4.05;;;;;;;4.77;71.13;97681.50;4903151;29;20107;-45
2020/12/28 10:58:40;;;;;;;4.57;4.07;;;;;;;5.17;69.17;97688.22;4902255;29;20052;-43
2020/12/28 11:01:14;;;;;;;5.32;4.00;;;;;;;5.14;69.24;97694.16;4901078;29;20063;-48
2020/12/28 11:03:40;;;;;;;5.57;3.95;;;;;;;5.04;69.47;97690.81;4902614;29;20058;-43
2020/12/28 11:06:07;;;;;;;6.85;4.57;;;;;;;4.77;71.01;97683.19;4895122;29;20409;-46
2020/12/28 11:08:33;;;;;;;5.38;3.78;;;;;;;4.91;70.34;97678.13;4903378;29;20083;-44
2020/12/28 11:11:00;;;;;;;6.00;4.20;;;;;;;4.90;69.87;97676.41;4903844;29;20276;-44
2020/12/28 11:13:26;;;;;;;5.18;4.05;;;;;;;5.17;68.88;97671.31;4902895;29;20053;-45
2020/12/28 11:15:52;;;;;;;5.40;4.20;;;;;;;5.28;68.88;97682.31;4902893;29;20578;-45
2020/12/28 11:18:19;;;;;;;7.20;4.50;;;;;;;5.42;68.79;97673.81;4902022;29;20056;-44
2020/12/28 11:20:45;;;;;;;5.28;4.30;;;;;;;5.62;68.19;97683.06;4901527;29;20072;-49
2020/12/28 11:23:16;;;;;;;6.47;4.40;;;;;;;5.41;68.32;97674.66;4900085;29;20055;-46
2020/12/28 11:25:43;;;;;;;6.60;4.50;;;;;;;5.41;68.62;97678.06;4904228;29;20055;-46
2020/12/28 11:28:09;;;;;;;4.75;3.67;;;;;;;5.77;67.14;97676.22;4903222;29;20442;-49
2020/12/28 11:30:38;;;;;;;5.32;4.10;;;;;;;5.85;66.46;97675.34;4905186;29;20104;-43
2020/12/28 11:33:05;;;;;;;5.18;4.20;;;;;;;6.01;66.44;97676.19;4902528;29;20060;-46
2020/12/28 11:35:31;;;;;;;6.88;4.75;;;;;;;6.11;66.08;97675.28;4898169;29;20503;-47
2020/12/28 11:37:58;;;;;;;6.25;3.90;;;;;;;5.87;65.18;97678.75;4899620;29;20053;-47
2020/12/28 11:40:25;;;;;;;5.68;4.05;;;;;;;5.99;65.63;97677.88;4900719;29;20100;-47
2020/12/28 11:42:53;;;;;;;5.68;4.20;;;;;;;5.48;67.81;97673.81;4902989;29;20079;-47
2020/12/28 11:45:19;;;;;;;5.05;4.28;;;;;;;5.87;66.50;97667.75;4901485;29;20056;-43
2020/12/28 11:47:45;;;;;;;4.97;4.15;;;;;;;5.73;67.00;97669.47;4905517;29;20059;-46
2020/12/28 11:50:12;;;;;;;6.45;4.40;;;;;;;5.74;66.34;97669.50;4903630;29;20127;-43
2020/12/28 11:52:40;;;;;;;5.38;4.15;;;;;;;5.86;66.11;97664.34;4901489;29;20052;-45